Time;durP1;ratioP1;P1;durP2;ratioP2;P2;SDS_P1;SDS_P2;PMS_P1;PMS_P2;Temp;Humidity;BMP_temperature;BMP_pressure;BME280_temperature;BME280_humidity;BME280_pressure;Samples;Min_cycle;Max_cycle;Signal;HPM_P1;HPM_P2
2021/09/08 00:02:23;;;;;;;2.10;1.67;;;;;;;13.12;67.99;100267.47;5114502;28;20153;-67
2021/09/08 00:04:48;;;;;;;3.15;1.55;;;;;;;13.10;68.14;100258.69;5114788;28;20045;-65
2021/09/08 00:07:14;;;;;;;1.90;1.38;;;;;;;13.10;68.13;100259.50;5114024;28;20470;-67
2021/09/08 00:09:39;;;;;;;2.80;1.55;;;;;;;13.08;68.03;100258.78;5115418;27;20042;-66
2021/09/08 00:12:05;;;;;;;4.28;1.65;;;;;;;12.99;67.81;100244.28;5114147;28;20024;-68
2021/09/08 00:14:32;;;;;;;2.20;1.63;;;;;;;13.06;67.60;100264.31;5114058;28;20381;-68
2021/09/08 00:16:58;;;;;;;5.93;2.15;;;;;;;13.04;67.72;100266.28;5113809;28;20069;-68
2021/09/08 00:19:23;;;;;;;2.35;1.40;;;;;;;13.03;67.81;100259.19;5114573;27;20035;-66
2021/09/08 00:21:49;;;;;;;3.40;1.52;;;;;;;13.00;67.62;100263.97;5114016;27;20103;-66
2021/09/08 00:24:14;;;;;;;8.20;1.98;;;;;;;13.00;67.96;100269.34;5113602;28;20126;-67
2021/09/08 00:26:40;;;;;;;2.40;1.45;;;;;;;12.97;67.69;100273.13;5113603;28;20063;-68
2021/09/08 00:29:06;;;;;;;4.53;1.45;;;;;;;12.74;67.82;100232.91;5113214;28;20039;-68
2021/09/08 00:31:32;;;;;;;3.00;1.80;;;;;;;12.95;67.74;100260.81;5114699;27;20028;-68
2021/09/08 00:33:57;;;;;;;3.33;1.60;;;;;;;12.95;67.83;100258.97;5113267;28;20036;-68
2021/09/08 00:36:23;;;;;;;6.93;1.75;;;;;;;12.92;68.27;100254.72;5113333;28;20028;-69
2021/09/08 00:38:48;;;;;;;3.08;1.60;;;;;;;12.75;67.70;100234.63;5113846;28;20033;-66
2021/09/08 00:41:14;;;;;;;1.58;1.38;;;;;;;12.90;67.92;100259.38;5119657;27;20110;-67
2021/09/08 00:43:39;;;;;;;3.03;1.70;;;;;;;12.88;67.55;100261.31;5133786;27;20051;-68
2021/09/08 00:46:06;;;;;;;2.85;1.92;;;;;;;12.84;67.59;100259.03;5133983;27;20023;-69
2021/09/08 00:48:31;;;;;;;3.85;1.70;;;;;;;12.83;67.62;100257.31;5133603;27;20027;-68
2021/09/08 00:50:57;;;;;;;2.70;1.60;;;;;;;12.77;67.72;100248.78;5132834;27;20058;-69
2021/09/08 00:53:23;;;;;;;2.72;1.75;;;;;;;12.82;67.96;100258.31;5113465;28;20122;-67
2021/09/08 00:55:49;;;;;;;3.50;1.70;;;;;;;12.79;67.69;100251.34;5113076;28;20035;-69
2021/09/08 00:58:16;;;;;;;2.45;1.35;;;;;;;12.81;67.72;100254.75;5113595;28;20050;-69
2021/09/08 01:00:42;;;;;;;2.90;1.63;;;;;;;12.74;67.83;100243.66;5113702;28;20031;-69
2021/09/08 01:03:09;;;;;;;2.10;1.40;;;;;;;12.77;67.44;100242.56;5123423;27;20034;-69
2021/09/08 01:05:34;;;;;;;1.73;1.48;;;;;;;12.80;67.73;100236.94;5136689;27;20437;-69
2021/09/08 01:08:00;;;;;;;2.67;1.73;;;;;;;12.88;67.58;100255.09;5134672;27;20105;-67
2021/09/08 01:10:27;;;;;;;3.50;1.60;;;;;;;12.90;67.45;100245.06;5133580;27;20037;-67
2021/09/08 01:12:53;;;;;;;4.07;1.77;;;;;;;12.91;67.57;100247.66;5131248;27;20376;-66
2021/09/08 01:15:19;;;;;;;5.57;1.80;;;;;;;12.94;67.22;100243.81;5132050;27;20037;-68
2021/09/08 01:17:45;;;;;;;2.10;1.40;;;;;;;12.94;67.42;100243.81;5133251;27;20096;-67
2021/09/08 01:20:15;;;;;;;3.88;1.60;;;;;;;13.01;67.48;100255.75;5134015;27;20023;-68
2021/09/08 01:22:59;;;;;;;2.70;1.60;;;;;;;13.07;67.58;100254.41;5131372;27;20404;-67
2021/09/08 01:25:27;;;;;;;1.95;1.60;;;;;;;12.82;67.35;100228.75;5135795;27;20451;-67
2021/09/08 01:27:54;;;;;;;2.58;1.52;;;;;;;12.89;67.56;100256.81;5133726;27;20035;-69
2021/09/08 01:30:24;;;;;;;2.50;1.30;;;;;;;12.85;67.57;100255.38;5133652;27;20035;-67
2021/09/08 01:32:50;;;;;;;2.15;1.48;;;;;;;12.77;68.23;100248.78;5132701;27;20055;-68
2021/09/08 01:35:17;;;;;;;2.78;1.45;;;;;;;12.72;67.86;100248.31;5130672;27;20035;-67
2021/09/08 01:37:45;;;;;;;3.97;1.88;;;;;;;12.69;68.11;100251.25;5133050;27;20853;-68
2021/09/08 01:40:11;;;;;;;3.65;1.70;;;;;;;12.64;67.99;100250.78;5133215;27;20019;-68
2021/09/08 01:42:37;;;;;;;3.05;1.60;;;;;;;12.56;68.15;100243.34;5132385;27;20057;-69
2021/09/08 01:45:03;;;;;;;5.32;1.60;;;;;;;12.57;68.14;100252.28;5131009;27;20035;-68
2021/09/08 01:47:28;;;;;;;4.05;1.88;;;;;;;12.57;68.43;100245.06;5133086;27;20030;-68
2021/09/08 01:49:54;;;;;;;2.42;1.48;;;;;;;12.58;68.17;100245.94;5132950;27;20126;-68
2021/09/08 01:52:19;;;;;;;2.95;1.85;;;;;;;12.61;67.84;100240.31;5132446;27;20077;-68
2021/09/08 01:54:45;;;;;;;2.63;1.50;;;;;;;12.58;68.03;100237.88;5128233;27;20035;-68
2021/09/08 01:57:10;;;;;;;4.60;1.63;;;;;;;12.61;67.87;100251.03;5132618;27;20400;-68
2021/09/08 01:59:36;;;;;;;2.33;1.70;;;;;;;12.60;68.07;100243.97;5132756;27;20118;-67
2021/09/08 02:02:01;;;;;;;3.63;1.65;;;;;;;12.59;67.82;100244.94;5132289;27;20495;-67
2021/09/08 02:04:27;;;;;;;2.85;1.60;;;;;;;12.54;67.99;100233.69;5132267;27;20384;-67
2021/09/08 02:06:52;;;;;;;2.60;1.80;;;;;;;12.50;68.28;100235.81;5113108;27;20042;-67
2021/09/08 02:09:19;;;;;;;3.20;1.50;;;;;;;12.51;68.24;100242.88;5111835;28;20020;-67
2021/09/08 02:11:45;;;;;;;7.00;1.60;;;;;;;12.47;68.47;100236.91;5111800;28;20020;-67
2021/09/08 02:14:11;;;;;;;3.05;1.70;;;;;;;12.46;68.29;100235.19;5111596;28;20028;-68
2021/09/08 02:16:38;;;;;;;4.40;1.70;;;;;;;12.44;68.14;100239.84;5112556;27;20073;-66
2021/09/08 02:19:04;;;;;;;3.83;1.88;;;;;;;12.40;68.50;100241.09;5111274;28;20397;-67
2021/09/08 02:21:30;;;;;;;3.47;1.83;;;;;;;12.43;68.48;100245.34;5111953;28;20035;-67
2021/09/08 02:23:55;;;;;;;2.60;1.75;;;;;;;12.39;68.35;100223.25;5111395;28;20465;-68
2021/09/08 02:26:21;;;;;;;2.75;1.55;;;;;;;12.45;68.45;100236.19;5111594;28;20043;-69
2021/09/08 02:28:46;;;;;;;2.55;1.50;;;;;;;12.48;68.50;100233.25;5116072;27;20543;-70
2021/09/08 02:31:12;;;;;;;3.45;1.48;;;;;;;12.46;68.67;100216.41;5111383;28;20038;-68
2021/09/08 02:33:38;;;;;;;2.17;1.60;;;;;;;12.53;68.18;100229.31;5111533;28;20108;-70
2021/09/08 02:36:04;;;;;;;2.72;1.70;;;;;;;12.54;68.36;100220.28;5111257;28;20521;-69
2021/09/08 02:38:31;;;;;;;3.10;1.77;;;;;;;12.56;68.35;100229.09;5112373;28;20058;-69
2021/09/08 02:41:01;;;;;;;2.40;1.98;;;;;;;12.61;68.03;100226.88;5112209;28;20073;-69
2021/09/08 02:43:27;;;;;;;4.38;1.70;;;;;;;12.57;68.20;100233.47;5111632;28;20110;-69
2021/09/08 02:45:53;;;;;;;2.83;1.70;;;;;;;12.56;68.33;100221.88;5111655;28;20062;-69
2021/09/08 02:48:18;;;;;;;3.70;1.98;;;;;;;12.56;68.45;100213.81;5112706;28;20069;-70
2021/09/08 02:50:44;;;;;;;5.82;2.17;;;;;;;12.39;68.31;100180.31;5111073;28;20031;-68
2021/09/08 02:53:10;;;;;;;4.65;1.58;;;;;;;12.58;68.20;100214.53;5111140;28;20119;-68
2021/09/08 02:55:35;;;;;;;4.57;1.73;;;;;;;12.51;67.88;100194.53;5111393;28;20114;-69
2021/09/08 02:58:01;;;;;;;3.17;1.85;;;;;;;12.57;67.84;100203.94;5112452;28;20077;-67
2021/09/08 03:00:26;;;;;;;3.20;1.67;;;;;;;12.58;67.94;100211.84;5111153;28;20089;-69
2021/09/08 03:02:52;;;;;;;2.83;1.70;;;;;;;12.54;67.97;100206.84;5111043;28;20032;-70
2021/09/08 03:05:17;;;;;;;2.83;1.40;;;;;;;12.38;67.63;100172.34;5113619;28;20311;-69
2021/09/08 03:07:43;;;;;;;2.92;1.95;;;;;;;12.60;67.69;100209.88;5115167;28;20106;-69
2021/09/08 03:10:09;;;;;;;3.90;1.55;;;;;;;12.48;67.89;100187.59;5115918;27;20039;-70
2021/09/08 03:12:34;;;;;;;2.47;1.35;;;;;;;12.63;67.62;100204.25;5115395;28;20134;-69
2021/09/08 03:15:00;;;;;;;3.78;1.70;;;;;;;12.57;67.44;100196.72;5115413;28;20035;-67
2021/09/08 03:17:26;;;;;;;4.03;1.75;;;;;;;12.63;67.40;100211.47;5114946;28;20035;-67
2021/09/08 03:19:51;;;;;;;3.10;1.58;;;;;;;12.63;67.27;100208.78;5116043;27;20031;-70
2021/09/08 03:22:16;;;;;;;2.25;1.58;;;;;;;12.66;67.39;100207.66;5115224;28;20035;-69
2021/09/08 03:24:42;;;;;;;2.67;1.58;;;;;;;12.65;66.81;100209.50;5115222;28;20030;-70
2021/09/08 03:27:08;;;;;;;5.50;1.90;;;;;;;12.62;67.12;100202.53;5114899;28;20473;-69
2021/09/08 03:29:35;;;;;;;3.50;1.88;;;;;;;12.66;67.00;100208.53;5118766;27;20404;-69
2021/09/08 03:32:01;;;;;;;5.35;1.95;;;;;;;12.68;66.93;100205.72;5134984;27;20043;-67
2021/09/08 03:34:26;;;;;;;3.95;1.90;;;;;;;12.49;66.97;100175.03;5135645;27;20043;-68
2021/09/08 03:36:52;;;;;;;5.25;2.15;;;;;;;12.66;66.71;100191.53;5135478;27;20038;-69
2021/09/08 03:39:17;;;;;;;5.13;2.20;;;;;;;12.76;66.19;100203.25;5133648;27;20091;-69
2021/09/08 03:41:43;;;;;;;5.28;1.98;;;;;;;12.65;66.47;100196.06;5116620;27;20035;-69
2021/09/08 03:44:08;;;;;;;2.60;1.90;;;;;;;12.74;66.33;100205.22;5115009;28;20035;-67
2021/09/08 03:46:34;;;;;;;4.07;2.10;;;;;;;12.66;66.56;100202.28;5114507;28;20031;-69
2021/09/08 03:48:59;;;;;;;4.50;2.10;;;;;;;12.71;66.42;100205.47;5114605;28;20031;-69
2021/09/08 03:51:24;;;;;;;3.13;2.00;;;;;;;12.71;66.22;100198.25;5115028;27;20024;-70
2021/09/08 03:53:50;;;;;;;4.70;2.08;;;;;;;12.78;66.15;100201.28;5114456;28;20040;-68
2021/09/08 03:56:15;;;;;;;5.35;2.35;;;;;;;12.86;65.86;100203.31;5114737;28;20031;-70
2021/09/08 03:58:41;;;;;;;3.05;2.08;;;;;;;12.92;65.88;100197.41;5114103;28;20031;-67
2021/09/08 04:01:06;;;;;;;3.42;1.83;;;;;;;12.74;65.38;100170.28;5117835;27;20392;-70
2021/09/08 04:03:32;;;;;;;4.18;1.98;;;;;;;12.99;65.51;100200.44;5134932;27;20027;-65
2021/09/08 04:05:57;;;;;;;4.00;2.10;;;;;;;13.03;64.79;100202.75;5134889;27;20042;-69
2021/09/08 04:08:23;;;;;;;4.35;2.28;;;;;;;12.99;64.96;100198.59;5134584;27;20054;-70
2021/09/08 04:10:48;;;;;;;3.75;2.05;;;;;;;13.12;64.81;100202.94;5134526;27;20062;-69
2021/09/08 04:13:14;;;;;;;4.18;2.30;;;;;;;13.15;64.71;100200.84;5132257;27;20023;-67
2021/09/08 04:15:39;;;;;;;3.45;2.15;;;;;;;13.17;64.71;100206.94;5134143;27;20031;-68
2021/09/08 04:18:04;;;;;;;4.57;2.17;;;;;;;13.19;64.57;100204.97;5133566;27;20019;-68
2021/09/08 04:20:30;;;;;;;5.35;2.40;;;;;;;13.24;64.33;100201.88;5134400;27;20068;-68
2021/09/08 04:22:55;;;;;;;4.22;2.38;;;;;;;13.27;64.03;100212.38;5131409;27;20392;-69
2021/09/08 04:25:21;;;;;;;5.53;2.47;;;;;;;13.29;64.39;100199.66;5133768;27;20047;-69
2021/09/08 04:27:46;;;;;;;5.10;2.08;;;;;;;12.81;63.60;100112.34;5134371;27;20035;-68
2021/09/08 04:30:12;;;;;;;2.55;1.95;;;;;;;13.40;63.35;100205.94;5134773;27;20498;-68
2021/09/08 04:32:38;;;;;;;3.75;1.95;;;;;;;13.40;63.04;100198.72;5128347;27;20028;-69
2021/09/08 04:35:04;;;;;;;4.82;2.22;;;;;;;13.45;62.84;100203.72;5114377;27;20043;-65
2021/09/08 04:37:29;;;;;;;4.22;2.08;;;;;;;13.46;62.77;100200.91;5113664;27;20034;-69
2021/09/08 04:39:55;;;;;;;3.13;2.00;;;;;;;13.49;62.56;100202.47;5113122;28;20387;-68
2021/09/08 04:42:21;;;;;;;5.90;2.65;;;;;;;13.53;62.58;100198.56;5117904;27;20035;-66
2021/09/08 04:44:46;;;;;;;3.33;1.95;;;;;;;13.58;62.58;100199.00;5132574;27;20031;-67
2021/09/08 04:47:11;;;;;;;3.10;2.15;;;;;;;13.65;62.05;100188.56;5131257;27;20120;-67
2021/09/08 04:49:37;;;;;;;3.67;2.03;;;;;;;13.68;61.79;100201.72;5131391;27;20102;-67
2021/09/08 04:52:03;;;;;;;4.68;2.28;;;;;;;13.66;61.85;100194.78;5132758;27;20098;-69
2021/09/08 04:54:28;;;;;;;2.50;1.90;;;;;;;13.66;61.79;100194.78;5131442;27;20137;-67
2021/09/08 04:56:54;;;;;;;3.03;1.90;;;;;;;13.64;61.49;100168.84;5132431;27;20059;-66
2021/09/08 04:59:19;;;;;;;2.97;1.77;;;;;;;13.82;61.29;100194.25;5132376;27;20019;-68
2021/09/08 05:01:44;;;;;;;2.33;1.60;;;;;;;13.88;61.15;100199.97;5132463;27;20039;-68
2021/09/08 05:04:10;;;;;;;3.92;2.13;;;;;;;13.91;60.88;100188.91;5130683;27;20058;-67
2021/09/08 05:06:35;;;;;;;4.07;2.17;;;;;;;14.02;60.40;100198.72;5131661;27;20023;-67
2021/09/08 05:09:02;;;;;;;4.25;2.17;;;;;;;14.11;60.23;100188.97;5132397;27;20434;-69
2021/09/08 05:11:27;;;;;;;5.55;1.98;;;;;;;14.27;59.63;100198.38;5133011;27;20122;-68
2021/09/08 05:13:53;;;;;;;6.28;2.40;;;;;;;14.45;59.27;100188.59;5132024;27;20100;-69
2021/09/08 05:16:18;;;;;;;2.70;2.00;;;;;;;14.60;58.94;100180.13;5113357;27;20023;-67
2021/09/08 05:18:44;;;;;;;3.80;2.03;;;;;;;14.89;58.02;100181.97;5113020;28;20106;-69
2021/09/08 05:21:09;;;;;;;2.72;2.00;;;;;;;15.13;57.00;100177.97;5112856;28;20118;-69
2021/09/08 05:23:35;;;;;;;4.47;2.38;;;;;;;15.33;56.20;100174.22;5112308;28;20043;-65
2021/09/08 05:26:00;;;;;;;3.13;1.98;;;;;;;15.63;55.56;100166.88;5112122;27;20064;-67
2021/09/08 05:28:26;;;;;;;7.97;2.50;;;;;;;16.01;54.35;100174.13;5112128;28;20039;-68
2021/09/08 05:30:52;;;;;;;6.05;2.40;;;;;;;16.36;52.96;100184.16;5112792;27;20038;-69
2021/09/08 05:33:17;;;;;;;7.03;2.15;;;;;;;16.64;51.96;100158.91;5111372;28;20032;-67
2021/09/08 05:35:43;;;;;;;5.55;2.20;;;;;;;17.14;50.78;100172.84;5112943;27;20039;-62
2021/09/08 05:38:09;;;;;;;4.53;2.40;;;;;;;17.52;49.74;100178.81;5112297;28;20028;-63
2021/09/08 05:40:34;;;;;;;5.65;2.33;;;;;;;17.89;48.44;100171.38;5094854;28;20083;-63
2021/09/08 05:43:01;;;;;;;5.90;2.42;;;;;;;18.22;47.73;100169.66;5110470;28;20684;-64
2021/09/08 05:45:27;;;;;;;5.60;2.45;;;;;;;18.65;46.52;100176.84;5111328;27;20039;-63
2021/09/08 05:47:52;;;;;;;7.18;2.60;;;;;;;18.88;45.73;100165.34;5110526;28;20285;-64
2021/09/08 05:50:18;;;;;;;3.80;2.38;;;;;;;19.01;45.22;100165.69;5110779;28;20380;-62
2021/09/08 05:52:43;;;;;;;6.60;2.58;;;;;;;19.34;44.57;100168.38;5110042;28;20385;-62
2021/09/08 05:55:09;;;;;;;5.78;2.95;;;;;;;19.67;43.53;100174.72;5108645;28;20038;-62
2021/09/08 05:57:35;;;;;;;3.45;2.38;;;;;;;20.00;42.79;100171.88;5093001;28;20031;-62
2021/09/08 06:00:01;;;;;;;5.05;2.50;;;;;;;20.41;41.59;100173.56;5110560;28;20023;-63
2021/09/08 06:02:26;;;;;;;4.22;2.40;;;;;;;21.29;39.40;100171.31;5125233;27;20053;-63
2021/09/08 06:04:51;;;;;;;4.82;2.17;;;;;;;22.79;36.51;100160.16;5132451;27;20058;-63
2021/09/08 06:07:17;;;;;;;5.78;2.30;;;;;;;24.03;33.93;100158.91;5123778;27;20065;-64
2021/09/08 06:09:42;;;;;;;4.95;2.45;;;;;;;25.15;31.91;100157.63;5111357;28;20031;-62
2021/09/08 06:12:08;;;;;;;5.72;2.55;;;;;;;25.87;30.65;100165.06;5111334;28;20034;-64
2021/09/08 06:14:34;;;;;;;8.55;2.40;;;;;;;26.54;28.96;100139.19;5111296;28;20088;-62
2021/09/08 06:16:59;;;;;;;5.75;2.40;;;;;;;27.39;28.04;100156.22;5112675;27;20059;-62
2021/09/08 06:19:25;;;;;;;7.03;2.53;;;;;;;28.31;26.13;100152.63;5111346;28;20036;-61
2021/09/08 06:21:50;;;;;;;3.88;2.28;;;;;;;29.90;24.19;100153.94;5110592;28;20032;-62
2021/09/08 06:24:16;;;;;;;4.78;2.63;;;;;;;30.44;22.87;100138.97;5114917;28;20494;-62
2021/09/08 06:26:42;;;;;;;10.55;2.58;;;;;;;29.63;23.97;100159.16;5120010;28;20040;-62
2021/09/08 06:29:07;;;;;;;5.05;2.72;;;;;;;28.29;26.13;100156.69;5134064;27;20503;-62
2021/09/08 06:31:33;;;;;;;5.43;2.35;;;;;;;26.89;27.31;100152.47;5133207;27;20027;-62
2021/09/08 06:33:59;;;;;;;8.00;2.40;;;;;;;25.46;29.34;100151.47;5130417;27;20487;-61
2021/09/08 06:36:24;;;;;;;5.43;2.78;;;;;;;24.28;31.83;100152.88;5131900;27;20054;-62
2021/09/08 06:38:50;;;;;;;7.75;2.83;;;;;;;23.26;33.12;100147.94;5130207;27;20023;-63
2021/09/08 06:41:16;;;;;;;9.48;2.80;;;;;;;22.37;35.20;100162.66;5129457;28;20031;-61
2021/09/08 06:43:41;;;;;;;5.15;2.40;;;;;;;21.69;36.38;100165.63;5131811;27;20024;-62
2021/09/08 06:46:07;;;;;;;5.50;2.40;;;;;;;20.93;37.34;100147.47;5132058;27;20023;-63
2021/09/08 06:48:33;;;;;;;5.95;2.35;;;;;;;20.37;38.92;100173.06;5126682;27;20055;-64
2021/09/08 06:50:58;;;;;;;5.68;2.72;;;;;;;19.83;39.81;100155.66;5132202;27;20037;-62
2021/09/08 06:53:24;;;;;;;4.68;2.33;;;;;;;19.40;40.76;100155.13;5131099;27;20050;-63
2021/09/08 06:55:49;;;;;;;4.75;2.72;;;;;;;18.94;42.02;100149.22;5148556;27;20121;-64
2021/09/08 06:58:15;;;;;;;4.55;2.20;;;;;;;18.61;42.75;100154.63;5129058;27;20030;-60
2021/09/08 07:00:40;;;;;;;4.70;2.40;;;;;;;18.28;43.60;100151.91;5129638;28;20464;-67
2021/09/08 07:03:06;;;;;;;5.97;2.80;;;;;;;18.08;44.38;100149.47;5146229;27;20030;-63
2021/09/08 07:05:32;;;;;;;8.00;2.85;;;;;;;17.98;44.29;100154.16;5135000;27;20099;-63
2021/09/08 07:07:57;;;;;;;9.30;2.53;;;;;;;17.87;43.92;100146.31;5132910;27;20051;-62
2021/09/08 07:10:23;;;;;;;7.82;2.75;;;;;;;17.62;44.36;100140.81;5139272;27;20031;-62
2021/09/08 07:12:49;;;;;;;4.35;2.35;;;;;;;17.47;45.45;100137.88;5139436;27;20027;-63
2021/09/08 07:15:15;;;;;;;5.38;2.42;;;;;;;17.32;45.60;100133.03;5147482;27;20035;-61
2021/09/08 07:17:40;;;;;;;9.32;2.75;;;;;;;17.35;46.14;100137.28;5134972;27;20035;-65
2021/09/08 07:20:07;;;;;;;6.45;2.92;;;;;;;17.42;45.07;100135.63;5140480;27;20015;-61
2021/09/08 07:22:32;;;;;;;7.88;3.05;;;;;;;17.61;45.42;100131.00;5141754;27;20077;-62
2021/09/08 07:24:58;;;;;;;7.53;3.30;;;;;;;17.92;44.54;100142.13;5144713;27;20027;-63
2021/09/08 07:27:23;;;;;;;12.05;3.22;;;;;;;18.32;44.01;100130.72;5135040;27;20038;-63
2021/09/08 07:29:49;;;;;;;7.03;2.97;;;;;;;18.83;43.08;100127.84;5144055;27;20411;-64
2021/09/08 07:32:15;;;;;;;7.60;2.70;;;;;;;19.08;41.73;100131.44;5137615;27;20034;-63
2021/09/08 07:34:40;;;;;;;5.90;3.00;;;;;;;19.00;41.89;100131.44;5140754;27;20464;-61
2021/09/08 07:37:06;;;;;;;6.05;2.55;;;;;;;18.77;42.44;100123.13;5145682;27;20027;-62
2021/09/08 07:39:31;;;;;;;5.95;2.60;;;;;;;18.60;42.64;100131.25;5132696;27;20502;-63
2021/09/08 07:41:57;;;;;;;10.82;3.08;;;;;;;18.50;43.56;100136.84;5130471;27;20026;-62
2021/09/08 07:44:23;;;;;;;9.40;2.72;;;;;;;18.43;43.63;100141.25;5125238;27;20027;-63
2021/09/08 07:46:48;;;;;;;4.90;2.50;;;;;;;18.43;43.85;100141.25;5133155;27;20031;-62
2021/09/08 07:49:14;;;;;;;4.10;2.28;;;;;;;18.66;42.55;100118.88;5133004;27;20388;-63
2021/09/08 07:51:39;;;;;;;6.60;2.67;;;;;;;18.96;42.09;100134.66;5134268;27;20381;-61
2021/09/08 07:54:05;;;;;;;6.07;2.33;;;;;;;19.04;42.31;100140.09;5140168;27;20031;-63
2021/09/08 07:56:30;;;;;;;7.90;2.40;;;;;;;18.93;42.01;100130.41;5141245;27;20031;-64
2021/09/08 07:58:56;;;;;;;8.73;2.63;;;;;;;18.68;42.22;100134.97;5136580;27;20023;-62
2021/09/08 08:01:22;;;;;;;8.25;2.20;;;;;;;18.29;43.19;100131.03;5128638;27;20453;-63
2021/09/08 08:03:47;;;;;;;5.38;2.45;;;;;;;17.97;44.40;100128.09;5146649;27;20061;-62
2021/09/08 08:06:13;;;;;;;5.25;2.47;;;;;;;17.72;44.93;100132.56;5147734;27;20030;-63
2021/09/08 08:08:38;;;;;;;4.35;2.47;;;;;;;17.48;45.87;100136.84;5144740;27;20026;-64
2021/09/08 08:11:04;;;;;;;4.50;1.98;;;;;;;17.31;46.17;100149.44;5139295;27;20557;-64
2021/09/08 08:13:30;;;;;;;6.07;2.50;;;;;;;17.15;46.01;100147.50;5134870;27;20088;-64
2021/09/08 08:15:55;;;;;;;4.68;2.40;;;;;;;16.95;46.65;100142.25;5148005;27;20019;-64
2021/09/08 08:18:21;;;;;;;4.40;2.40;;;;;;;16.87;46.94;100147.56;5145941;27;20107;-64
2021/09/08 08:20:46;;;;;;;5.50;2.53;;;;;;;16.74;47.01;100150.69;5142369;27;20027;-64
2021/09/08 08:23:12;;;;;;;6.38;2.60;;;;;;;16.41;47.61;100112.56;5128279;27;20042;-63
2021/09/08 08:25:38;;;;;;;8.35;2.40;;;;;;;16.52;47.48;100133.09;5126999;27;20069;-62
2021/09/08 08:28:04;;;;;;;6.28;3.10;;;;;;;16.48;47.49;100130.72;5148572;27;20468;-63
2021/09/08 08:30:31;;;;;;;7.13;3.20;;;;;;;16.40;47.82;100140.59;5134020;27;20065;-62
2021/09/08 08:32:57;;;;;;;9.05;2.80;;;;;;;16.22;47.17;100098.22;5119044;27;20032;-63
2021/09/08 08:35:23;;;;;;;5.88;2.45;;;;;;;16.55;47.01;100136.38;5144133;27;20087;-64
2021/09/08 08:37:51;;;;;;;4.15;2.50;;;;;;;16.55;46.63;100103.94;5134769;27;20060;-63
2021/09/08 08:40:17;;;;;;;6.38;2.63;;;;;;;16.92;46.22;100129.88;5142853;27;20107;-62
2021/09/08 08:42:44;;;;;;;5.90;2.30;;;;;;;17.21;45.27;100134.16;5122316;27;20110;-61
2021/09/08 08:45:11;;;;;;;8.55;2.95;;;;;;;17.34;45.35;100120.19;5109524;27;20723;-62
2021/09/08 08:47:36;;;;;;;4.97;2.10;;;;;;;17.42;45.41;100115.84;5110816;28;20480;-62
2021/09/08 08:50:04;;;;;;;6.53;2.53;;;;;;;17.33;45.58;100123.91;5112486;28;20151;-60
2021/09/08 08:52:29;;;;;;;8.00;2.50;;;;;;;17.18;45.63;100114.72;5113394;28;20106;-63
2021/09/08 08:54:56;;;;;;;6.03;2.33;;;;;;;17.01;45.65;100117.31;5113576;27;20118;-62
2021/09/08 08:57:21;;;;;;;8.45;2.55;;;;;;;16.56;46.70;100077.72;5113162;28;20114;-62
2021/09/08 08:59:50;;;;;;;3.72;2.15;;;;;;;16.58;46.82;100125.22;5113468;28;20106;-61
2021/09/08 09:02:20;;;;;;;3.22;2.13;;;;;;;16.60;47.39;100107.00;5112753;28;20469;-64
2021/09/08 09:04:46;;;;;;;9.23;2.67;;;;;;;16.55;47.92;100113.88;5112429;27;20091;-64
2021/09/08 09:07:37;;;;;;;3.47;2.28;;;;;;;16.71;47.85;100119.44;5112797;28;20080;-62
2021/09/08 09:10:08;;;;;;;6.57;2.30;;;;;;;16.66;47.76;100113.66;5113020;28;20073;-62
2021/09/08 09:12:42;;;;;;;5.15;2.70;;;;;;;16.34;48.69;100082.63;5112593;28;20031;-63
2021/09/08 09:15:11;;;;;;;3.53;2.55;;;;;;;16.45;48.77;100114.81;5117989;27;20039;-61
2021/09/08 09:17:37;;;;;;;5.28;3.00;;;;;;;16.28;48.70;100091.34;5133108;27;20035;-62
2021/09/08 09:20:10;;;;;;;5.10;2.90;;;;;;;16.38;49.37;100102.06;5133159;27;20526;-61
2021/09/08 09:22:44;;;;;;;6.35;3.05;;;;;;;16.36;49.37;100099.53;5133227;27;20031;-62
2021/09/08 09:25:11;;;;;;;5.68;2.83;;;;;;;16.20;49.63;100092.97;5131056;27;20038;-63
2021/09/08 09:27:49;;;;;;;3.15;2.60;;;;;;;15.96;49.06;100033.31;5133057;27;20678;-61
2021/09/08 09:30:18;;;;;;;4.45;2.97;;;;;;;16.19;49.74;100088.59;5133710;27;20436;-62
2021/09/08 09:32:46;;;;;;;7.47;3.00;;;;;;;16.10;49.78;100084.09;5133243;27;20023;-60
2021/09/08 09:35:15;;;;;;;9.50;2.78;;;;;;;16.26;50.07;100082.56;5132473;27;20038;-62
2021/09/08 09:37:47;;;;;;;6.18;3.05;;;;;;;16.52;49.87;100081.75;5113168;27;20059;-61
2021/09/08 09:40:15;;;;;;;9.80;3.20;;;;;;;16.88;48.98;100093.34;5111553;28;20101;-61
2021/09/08 09:42:42;;;;;;;3.75;2.65;;;;;;;17.26;47.69;100084.97;5111758;28;20461;-63
2021/09/08 09:45:09;;;;;;;7.18;3.10;;;;;;;17.43;47.60;100074.25;5111031;27;20051;-58
2021/09/08 09:47:42;;;;;;;10.40;2.63;;;;;;;17.54;47.37;100075.81;5113710;27;20032;-60
2021/09/08 09:50:11;;;;;;;8.75;2.95;;;;;;;17.44;48.10;100078.66;5126771;27;20035;-61
2021/09/08 09:52:37;;;;;;;7.22;2.85;;;;;;;17.06;48.36;100046.50;5132123;27;20031;-58
2021/09/08 09:55:05;;;;;;;6.15;2.85;;;;;;;17.02;48.94;100078.44;5131638;27;20038;-61
2021/09/08 09:57:30;;;;;;;5.38;2.42;;;;;;;16.78;48.90;100079.09;5120413;27;20023;-62
2021/09/08 10:00:00;;;;;;;7.55;2.78;;;;;;;16.60;49.78;100062.88;5110061;28;20457;-63
2021/09/08 10:02:26;;;;;;;5.35;2.67;;;;;;;16.31;49.87;100031.59;5123128;27;20068;-60
2021/09/08 10:04:53;;;;;;;5.05;2.42;;;;;;;16.46;49.89;100067.00;5128227;27;20019;-62
2021/09/08 10:07:23;;;;;;;9.60;2.60;;;;;;;16.46;50.38;100061.59;5128766;27;20035;-64
2021/09/08 10:09:53;;;;;;;4.95;2.45;;;;;;;16.26;50.28;100025.81;5129728;27;20385;-63
2021/09/08 10:12:23;;;;;;;6.53;2.85;;;;;;;16.35;50.31;100060.00;5129964;27;20095;-65
2021/09/08 10:14:50;;;;;;;8.73;2.90;;;;;;;16.16;50.83;100059.19;5129571;27;20472;-66
2021/09/08 10:17:19;;;;;;;6.03;2.47;;;;;;;16.07;51.22;100068.19;5130440;27;20034;-66
2021/09/08 10:19:45;;;;;;;6.10;2.70;;;;;;;15.92;51.58;100049.84;5129959;27;20038;-66
2021/09/08 10:22:12;;;;;;;4.20;2.70;;;;;;;15.49;51.92;99987.44;5132296;27;20408;-65
2021/09/08 10:24:48;;;;;;;7.57;2.35;;;;;;;15.77;51.49;100024.31;5129975;27;20050;-67
2021/09/08 10:27:27;;;;;;;6.65;2.97;;;;;;;15.89;51.57;100049.28;5131296;27;20035;-67
2021/09/08 10:29:54;;;;;;;9.77;2.83;;;;;;;15.76;52.07;100042.34;5128390;27;20027;-67
2021/09/08 10:32:20;;;;;;;5.78;2.75;;;;;;;15.76;51.71;100039.66;5131695;27;20135;-67
2021/09/08 10:34:48;;;;;;;10.02;2.50;;;;;;;15.79;51.92;100035.81;5131644;27;20070;-68
2021/09/08 10:37:14;;;;;;;9.00;3.20;;;;;;;15.84;51.66;100035.38;5130937;27;20049;-64
2021/09/08 10:39:41;;;;;;;5.50;2.75;;;;;;;15.91;51.53;100028.38;5121524;27;20528;-69
2021/09/08 10:42:07;;;;;;;4.47;2.72;;;;;;;15.88;51.57;100018.72;5110773;28;20127;-69
2021/09/08 10:44:41;;;;;;;5.03;2.90;;;;;;;16.01;51.29;100026.44;5109080;27;20110;-66
2021/09/08 10:47:07;;;;;;;9.23;3.08;;;;;;;15.83;51.58;99996.72;5132462;27;20114;-69
2021/09/08 10:49:38;;;;;;;7.35;3.20;;;;;;;16.04;51.32;100007.25;5129071;27;20115;-66
2021/09/08 10:52:08;;;;;;;10.18;3.45;;;;;;;16.00;51.49;100003.13;5135755;27;20072;-64
2021/09/08 10:54:54;;;;;;;8.35;2.97;;;;;;;16.15;50.99;99999.91;5131125;27;20046;-63
2021/09/08 10:57:41;;;;;;;5.07;2.80;;;;;;;16.17;51.14;99997.88;5116686;27;20039;-72
2021/09/08 11:00:28;;;;;;;7.70;2.85;;;;;;;16.00;51.48;99991.50;5125297;27;20143;-70
2021/09/08 11:02:53;;;;;;;7.65;3.30;;;;;;;15.95;51.78;99980.31;5129416;28;20039;-71
2021/09/08 11:05:19;;;;;;;3.58;2.92;;;;;;;15.93;51.52;99985.88;5148491;27;20038;-68
2021/09/08 11:07:47;;;;;;;6.75;2.90;;;;;;;15.93;51.87;99986.72;5133383;27;20106;-71
2021/09/08 11:10:22;;;;;;;8.00;3.05;;;;;;;15.85;52.27;99975.81;5128481;28;20023;-67
2021/09/08 11:12:50;;;;;;;4.88;2.85;;;;;;;15.85;51.72;99956.06;5134712;27;20038;-65
2021/09/08 11:15:18;;;;;;;5.57;2.90;;;;;;;15.96;51.59;99976.63;5136016;27;20035;-66
2021/09/08 11:17:51;;;;;;;6.65;3.17;;;;;;;15.97;51.94;99975.63;5141191;27;20083;-72
2021/09/08 11:20:17;;;;;;;6.63;3.42;;;;;;;16.00;52.04;99976.13;5147290;27;20130;-71
2021/09/08 11:22:42;;;;;;;10.18;3.33;;;;;;;15.85;52.26;99946.09;5139722;27;20054;-74